Time;durP1;ratioP1;P1;durP2;ratioP2;P2;SDS_P1;SDS_P2;PMS_P1;PMS_P2;Temp;Humidity;BMP_temperature;BMP_pressure;BME280_temperature;BME280_humidity;BME280_pressure;Samples;Min_cycle;Max_cycle;Signal;HPM_P1;HPM_P2
2023/03/23 00:02:39;;;;;;;7.75;6.03;;;;;;;;;;5097996;28;20031;-75
2023/03/23 00:05:07;;;;;;;6.32;5.53;;;;;;;;;;5102652;27;20031;-75
2023/03/23 00:07:33;;;;;;;6.72;6.03;;;;;;;;;;5104539;28;20027;-75
2023/03/23 00:10:02;;;;;;;6.90;5.95;;;;;;;;;;5109255;28;20019;-75
2023/03/23 00:12:32;;;;;;;7.90;6.53;;;;;;;;;;5104580;28;20530;-74
2023/03/23 00:15:03;;;;;;;6.82;6.10;;;;;;;;;;5103046;28;20509;-75
2023/03/23 00:17:32;;;;;;;7.60;6.60;;;;;;;;;;5091589;28;20606;-75
2023/03/23 00:20:00;;;;;;;7.38;6.25;;;;;;;;;;5104747;28;20272;-75
2023/03/23 00:22:27;;;;;;;10.15;6.32;;;;;;;;;;5100370;27;20065;-74
2023/03/23 00:24:53;;;;;;;9.40;6.57;;;;;;;;;;5101915;27;20033;-74
2023/03/23 00:27:21;;;;;;;9.52;5.75;;;;;;;;;;5102962;27;20069;-74
2023/03/23 00:29:52;;;;;;;7.25;6.18;;;;;;;;;;5103844;27;20054;-74
2023/03/23 00:32:20;;;;;;;7.70;6.47;;;;;;;;;;5101622;27;20470;-76
2023/03/23 00:34:48;;;;;;;8.10;6.50;;;;;;;;;;5100669;27;20016;-75
2023/03/23 00:37:16;;;;;;;7.30;5.75;;;;;;;;;;5102387;27;20024;-76
2023/03/23 00:39:45;;;;;;;7.20;5.95;;;;;;;;;;5098443;28;20163;-75
2023/03/23 00:42:12;;;;;;;9.65;7.68;;;;;;;;;;5089019;28;20471;-75
2023/03/23 00:44:39;;;;;;;10.50;7.68;;;;;;;;;;5103705;27;20027;-75
2023/03/23 00:47:08;;;;;;;9.30;7.05;;;;;;;;;;5103955;27;20055;-75
2023/03/23 00:49:34;;;;;;;8.25;6.70;;;;;;;;;;5102569;27;20032;-75
2023/03/23 00:52:01;;;;;;;7.53;6.50;;;;;;;;;;5103183;27;20028;-75
2023/03/23 00:54:27;;;;;;;7.53;6.38;;;;;;;;;;5106891;27;20032;-75
2023/03/23 00:56:54;;;;;;;8.25;6.70;;;;;;;;;;5101059;27;20471;-75
2023/03/23 00:59:20;;;;;;;7.60;6.50;;;;;;;;;;5099133;27;20020;-75
2023/03/23 01:01:47;;;;;;;6.45;5.70;;;;;;;;;;5101635;27;20031;-75
2023/03/23 01:04:14;;;;;;;8.13;6.45;;;;;;;;;;5103458;27;20024;-75
2023/03/23 01:06:42;;;;;;;8.25;6.30;;;;;;;;;;5102404;27;20036;-75
2023/03/23 01:09:09;;;;;;;7.78;6.65;;;;;;;;;;5103061;27;20030;-75
2023/03/23 01:11:35;;;;;;;6.97;6.05;;;;;;;;;;5094639;28;20053;-75
2023/03/23 01:14:02;;;;;;;8.80;6.30;;;;;;;;;;5103409;27;20034;-75
2023/03/23 01:16:28;;;;;;;7.68;6.45;;;;;;;;;;5104234;27;20100;-75
2023/03/23 01:18:54;;;;;;;11.90;7.65;;;;;;;;;;5099944;27;20027;-75
2023/03/23 01:21:21;;;;;;;7.47;6.22;;;;;;;;;;5102910;27;20058;-75
2023/03/23 01:23:48;;;;;;;7.47;6.00;;;;;;;;;;5107205;27;20028;-75
2023/03/23 01:26:15;;;;;;;8.50;6.10;;;;;;;;;;5100867;27;20044;-75
2023/03/23 01:28:42;;;;;;;7.05;6.13;;;;;;;;;;5105958;27;20015;-75
2023/03/23 01:31:11;;;;;;;7.40;6.13;;;;;;;;;;5104150;27;20654;-75
2023/03/23 01:33:38;;;;;;;7.25;5.90;;;;;;;;;;5102186;27;20866;-74
2023/03/23 01:39:08;;;;;;;7.50;6.20;;;;;;;;;;4972170;28;20050;-90
2023/03/23 01:41:35;;;;;;;8.00;6.20;;;;;;;;;;5100006;28;20057;-89
2023/03/23 01:44:03;;;;;;;7.15;6.15;;;;;;;;;;5099652;28;20016;-89
2023/03/23 01:46:31;;;;;;;7.25;6.43;;;;;;;;;;5100582;28;20036;-89
2023/03/23 01:48:58;;;;;;;6.97;6.25;;;;;;;;;;5099925;28;20042;-89
2023/03/23 01:51:25;;;;;;;6.93;6.22;;;;;;;;;;5098817;28;20077;-89
2023/03/23 01:53:57;;;;;;;7.00;5.82;;;;;;;;;;5100129;28;20110;-89
2023/03/23 01:56:24;;;;;;;;;;;;;;;;;;5099921;28;20088;-90
2023/03/23 01:58:51;;;;;;;8.95;6.32;;;;;;;;;;5099632;28;20307;-90
2023/03/23 02:01:18;;;;;;;8.52;6.57;;;;;;;;;;5099623;28;20104;-90
2023/03/23 02:03:47;;;;;;;7.43;6.57;;;;;;;;;;5099537;28;20024;-90
2023/03/23 02:06:14;;;;;;;9.10;6.75;;;;;;;;;;5099619;28;20501;-90
2023/03/23 02:08:42;;;;;;;7.43;6.60;;;;;;;;;;5099569;28;20047;-90
2023/03/23 02:11:12;;;;;;;7.78;6.78;;;;;;;;;;5099382;28;20062;-90
2023/03/23 02:13:39;;;;;;;8.27;6.50;;;;;;;;;;5099610;28;20032;-90
2023/03/23 02:16:26;;;;;;;7.28;6.30;;;;;;;;;;5099436;28;20028;-90
2023/03/23 02:18:52;;;;;;;7.72;6.43;;;;;;;;;;5098996;28;20023;-90
2023/03/23 02:21:27;;;;;;;7.85;7.00;;;;;;;;;;5117422;28;20031;-89
2023/03/23 02:24:02;;;;;;;6.60;5.90;;;;;;;;;;5099911;28;20469;-90
2023/03/23 02:26:46;;;;;;;8.52;6.53;;;;;;;;;;5099275;28;20027;-90
2023/03/23 02:29:22;;;;;;;7.00;6.20;;;;;;;;;;5099729;28;20015;-89
2023/03/23 02:31:48;;;;;;;8.10;7.00;;;;;;;;;;5098726;28;20117;-90
2023/03/23 02:34:19;;;;;;;8.45;6.78;;;;;;;;;;5098940;28;20024;-89
2023/03/23 02:36:48;;;;;;;7.03;6.32;;;;;;;;;;5099160;28;20039;-88
2023/03/23 02:39:25;;;;;;;7.47;6.30;;;;;;;;;;5098666;28;20061;-90
2023/03/23 02:41:55;;;;;;;7.65;5.88;;;;;;;;;;5098697;28;20321;-90
2023/03/23 02:44:22;;;;;;;8.43;6.35;;;;;;;;;;5097549;28;20119;-89
2023/03/23 02:46:49;;;;;;;10.25;6.20;;;;;;;;;;5098500;28;20520;-89
2023/03/23 02:49:18;;;;;;;8.75;6.10;;;;;;;;;;5097516;28;20110;-89
2023/03/23 02:51:46;;;;;;;7.28;5.93;;;;;;;;;;5114014;28;20035;-89
2023/03/23 02:54:14;;;;;;;6.80;6.10;;;;;;;;;;5097681;28;20061;-89
2023/03/23 02:56:41;;;;;;;8.45;6.85;;;;;;;;;;5097241;28;20492;-89
2023/03/23 02:59:07;;;;;;;7.50;6.30;;;;;;;;;;5097111;28;20043;-89
2023/03/23 03:01:35;;;;;;;7.70;6.47;;;;;;;;;;5097351;28;20020;-89
2023/03/23 03:04:13;;;;;;;8.68;6.85;;;;;;;;;;5097494;28;20022;-89
2023/03/23 03:06:52;;;;;;;6.70;5.93;;;;;;;;;;5097232;28;20040;-89
2023/03/23 03:09:27;;;;;;;8.25;6.95;;;;;;;;;;5097089;28;20031;-89
2023/03/23 03:11:57;;;;;;;7.05;5.88;;;;;;;;;;5097275;28;20034;-89
2023/03/23 03:14:27;;;;;;;9.13;6.60;;;;;;;;;;5096823;28;20016;-89
2023/03/23 03:17:06;;;;;;;6.40;5.75;;;;;;;;;;5097320;28;20016;-89
2023/03/23 03:19:44;;;;;;;7.32;6.05;;;;;;;;;;5097247;28;20047;-90
2023/03/23 03:22:11;;;;;;;8.45;6.70;;;;;;;;;;5097123;28;20027;-90
2023/03/23 03:24:37;;;;;;;7.32;6.05;;;;;;;;;;5095787;28;20035;-89
2023/03/23 03:27:17;;;;;;;8.05;6.53;;;;;;;;;;5096816;28;20118;-89
2023/03/23 03:29:47;;;;;;;11.35;6.05;;;;;;;;;;5096901;28;20028;-89
2023/03/23 03:32:15;;;;;;;7.95;6.55;;;;;;;;;;5096796;28;20012;-89
2023/03/23 03:34:41;;;;;;;7.32;6.32;;;;;;;;;;5096929;28;20103;-89
2023/03/23 03:37:07;;;;;;;8.07;6.55;;;;;;;;;;5096907;28;20016;-90
2023/03/23 03:39:37;;;;;;;7.03;6.10;;;;;;;;;;5096672;28;20108;-90
2023/03/23 03:42:03;;;;;;;7.57;6.22;;;;;;;;;;5096528;28;20023;-89
2023/03/23 03:44:30;;;;;;;7.22;6.05;;;;;;;;;;5096620;28;20070;-89
2023/03/23 03:46:56;;;;;;;8.23;6.30;;;;;;;;;;5096501;28;20035;-89
2023/03/23 03:49:22;;;;;;;6.75;5.80;;;;;;;;;;5096526;28;20049;-89
2023/03/23 03:51:48;;;;;;;7.28;6.28;;;;;;;;;;5096415;28;20034;-89
2023/03/23 03:54:15;;;;;;;6.43;5.80;;;;;;;;;;5096498;28;20111;-89
2023/03/23 03:56:42;;;;;;;8.52;6.47;;;;;;;;;;5096338;28;20027;-89
2023/03/23 03:59:09;;;;;;;7.72;6.15;;;;;;;;;;5096408;28;20039;-90
2023/03/23 04:01:36;;;;;;;6.53;5.78;;;;;;;;;;5096304;28;20019;-89
2023/03/23 04:04:02;;;;;;;6.75;5.60;;;;;;;;;;5096853;28;20081;-90
2023/03/23 04:06:29;;;;;;;6.65;5.72;;;;;;;;;;5096160;28;20078;-90
2023/03/23 04:08:58;;;;;;;8.07;6.07;;;;;;;;;;5097289;28;20385;-89
2023/03/23 04:11:25;;;;;;;6.95;6.07;;;;;;;;;;5096465;28;20110;-89
2023/03/23 04:13:52;;;;;;;7.40;6.15;;;;;;;;;;5096616;28;20027;-89
2023/03/23 04:16:18;;;;;;;8.50;6.70;;;;;;;;;;5096621;28;20030;-89
2023/03/23 04:18:47;;;;;;;7.50;6.40;;;;;;;;;;5079961;28;20519;-90
2023/03/23 04:21:15;;;;;;;7.82;6.07;;;;;;;;;;5114418;28;20049;-90
2023/03/23 04:23:42;;;;;;;6.97;5.90;;;;;;;;;;5096276;28;20019;-89
2023/03/23 04:26:12;;;;;;;8.13;5.95;;;;;;;;;;5096343;28;20059;-89
2023/03/23 04:28:39;;;;;;;7.28;5.90;;;;;;;;;;5095975;28;20032;-89
2023/03/23 04:31:05;;;;;;;7.43;6.20;;;;;;;;;;5096129;28;20019;-89
2023/03/23 04:33:31;;;;;;;7.85;6.57;;;;;;;;;;5096314;28;20028;-89
2023/03/23 04:36:00;;;;;;;7.03;6.18;;;;;;;;;;5096004;28;20023;-89
2023/03/23 04:38:27;;;;;;;7.65;5.82;;;;;;;;;;5095820;28;20047;-89
2023/03/23 04:40:54;;;;;;;20.98;6.25;;;;;;;;;;5096089;28;20038;-89
2023/03/23 04:43:22;;;;;;;11.60;7.03;;;;;;;;;;5096154;28;20032;-88
2023/03/23 04:45:58;;;;;;;8.13;6.80;;;;;;;;;;5095929;28;20032;-88
2023/03/23 04:48:29;;;;;;;7.78;6.47;;;;;;;;;;5095756;28;20020;-89
2023/03/23 04:50:59;;;;;;;8.73;7.15;;;;;;;;;;5095598;28;20051;-88
2023/03/23 04:53:25;;;;;;;7.35;6.57;;;;;;;;;;5095598;28;20031;-89
2023/03/23 04:55:52;;;;;;;7.68;6.72;;;;;;;;;;5095877;28;20069;-89
2023/03/23 04:58:19;;;;;;;8.93;6.97;;;;;;;;;;5095578;28;20024;-89
2023/03/23 05:00:49;;;;;;;8.73;6.97;;;;;;;;;;5096677;28;20019;-89
2023/03/23 05:03:16;;;;;;;7.68;6.38;;;;;;;;;;5095931;28;20093;-89
2023/03/23 05:05:43;;;;;;;7.50;6.53;;;;;;;;;;5095520;28;20031;-89
2023/03/23 05:08:09;;;;;;;7.72;6.85;;;;;;;;;;5096512;28;20023;-89
2023/03/23 05:10:35;;;;;;;8.48;6.97;;;;;;;;;;5099322;28;20107;-88
2023/03/23 05:13:01;;;;;;;7.57;6.78;;;;;;;;;;5099140;28;20048;-89
2023/03/23 05:15:27;;;;;;;8.30;6.50;;;;;;;;;;5099631;28;20019;-89
2023/03/23 05:17:55;;;;;;;8.02;6.88;;;;;;;;;;5099522;28;20019;-89
2023/03/23 05:20:21;;;;;;;7.85;7.00;;;;;;;;;;5099175;28;20023;-89
2023/03/23 05:22:49;;;;;;;8.98;7.07;;;;;;;;;;5099127;28;20031;-89
2023/03/23 05:25:18;;;;;;;8.95;7.60;;;;;;;;;;5099106;28;20028;-89
2023/03/23 05:27:48;;;;;;;8.98;7.13;;;;;;;;;;5099217;28;20030;-89
2023/03/23 05:30:16;;;;;;;8.77;7.13;;;;;;;;;;5099434;28;20159;-89
2023/03/23 05:32:44;;;;;;;8.50;7.03;;;;;;;;;;5099115;28;20239;-89
2023/03/23 05:35:11;;;;;;;7.88;7.00;;;;;;;;;;5098998;28;20088;-89
2023/03/23 05:37:38;;;;;;;7.88;7.03;;;;;;;;;;5098855;28;20069;-89
2023/03/23 05:40:05;;;;;;;8.85;7.50;;;;;;;;;;5098721;28;20047;-89
2023/03/23 05:42:35;;;;;;;8.48;7.25;;;;;;;;;;5098626;28;20015;-88
2023/03/23 05:45:03;;;;;;;8.82;7.20;;;;;;;;;;5098916;28;20023;-90
2023/03/23 05:47:30;;;;;;;8.35;7.43;;;;;;;;;;5099501;28;20035;-90
2023/03/23 05:49:56;;;;;;;9.23;7.55;;;;;;;;;;5099452;28;20024;-90
2023/03/23 05:52:24;;;;;;;8.68;7.43;;;;;;;;;;5098804;28;20558;-89
2023/03/23 05:54:52;;;;;;;8.40;6.90;;;;;;;;;;5098825;28;20504;-89
2023/03/23 05:57:21;;;;;;;8.93;7.60;;;;;;;;;;5098803;28;20027;-88
2023/03/23 05:59:47;;;;;;;10.27;7.72;;;;;;;;;;5098125;28;20047;-88
2023/03/23 06:02:14;;;;;;;10.68;7.43;;;;;;;;;;5098398;28;20027;-88
2023/03/23 06:04:40;;;;;;;7.93;6.82;;;;;;;;;;5098446;28;20031;-88
2023/03/23 06:07:07;;;;;;;9.20;7.65;;;;;;;;;;5097862;28;20409;-88
2023/03/23 06:09:37;;;;;;;8.07;6.88;;;;;;;;;;5097948;28;20084;-89
2023/03/23 06:12:04;;;;;;;10.40;8.18;;;;;;;;;;5098174;28;20028;-88
2023/03/23 06:14:31;;;;;;;10.65;8.90;;;;;;;;;;5097792;28;20023;-89
2023/03/23 06:16:57;;;;;;;11.40;8.77;;;;;;;;;;5098975;28;20377;-88
2023/03/23 06:19:26;;;;;;;10.57;8.65;;;;;;;;;;5097860;28;20020;-89
2023/03/23 06:21:53;;;;;;;12.10;9.20;;;;;;;;;;5097831;28;20031;-89
2023/03/23 06:24:19;;;;;;;13.68;11.13;;;;;;;;;;5097912;28;20028;-88
2023/03/23 06:26:45;;;;;;;16.25;12.35;;;;;;;;;;5097939;28;20036;-88
2023/03/23 06:29:12;;;;;;;16.13;11.02;;;;;;;;;;5097512;28;20016;-88
2023/03/23 06:31:43;;;;;;;14.93;11.35;;;;;;;;;;5097273;28;20057;-89
2023/03/23 06:34:11;;;;;;;14.77;10.40;;;;;;;;;;5097734;28;20016;-89
2023/03/23 06:36:38;;;;;;;14.27;11.32;;;;;;;;;;5097863;28;20031;-89
2023/03/23 06:39:04;;;;;;;15.73;12.23;;;;;;;;;;5097436;28;20039;-89
2023/03/23 06:41:34;;;;;;;19.05;11.05;;;;;;;;;;5097430;28;20035;-88
2023/03/23 06:44:07;;;;;;;14.65;10.55;;;;;;;;;;5097412;28;20482;-88
2023/03/23 06:46:33;;;;;;;10.90;8.98;;;;;;;;;;5097130;28;20066;-89
2023/03/23 06:48:59;;;;;;;11.48;8.98;;;;;;;;;;5097236;28;20062;-89
2023/03/23 06:51:26;;;;;;;10.45;8.70;;;;;;;;;;5097235;28;20454;-88
2023/03/23 06:53:53;;;;;;;12.90;8.75;;;;;;;;;;5097464;28;20031;-88
2023/03/23 06:56:19;;;;;;;10.02;8.43;;;;;;;;;;5097049;28;20032;-89
2023/03/23 06:58:46;;;;;;;11.45;9.93;;;;;;;;;;5097143;28;20020;-89
2023/03/23 07:01:14;;;;;;;22.58;9.95;;;;;;;;;;5098159;28;20024;-93
2023/03/23 07:03:41;;;;;;;20.25;9.20;;;;;;;;;;5098071;28;20031;-93
2023/03/23 07:06:08;;;;;;;14.00;10.02;;;;;;;;;;5097023;28;20038;-86
2023/03/23 07:08:34;;;;;;;13.15;10.55;;;;;;;;;;5096675;28;20024;-87
2023/03/23 07:11:01;;;;;;;12.25;9.35;;;;;;;;;;5096184;28;20493;-87
2023/03/23 07:13:28;;;;;;;14.40;11.60;;;;;;;;;;5096284;28;20024;-87
2023/03/23 07:15:54;;;;;;;16.63;12.75;;;;;;;;;;5097527;28;20024;-87
2023/03/23 07:18:21;;;;;;;15.82;12.45;;;;;;;;;;5096198;28;20110;-87
2023/03/23 07:20:50;;;;;;;15.77;12.27;;;;;;;;;;5095659;28;20042;-87
2023/03/23 07:23:17;;;;;;;13.98;12.43;;;;;;;;;;5096247;28;20470;-87
2023/03/23 07:25:45;;;;;;;16.60;12.23;;;;;;;;;;5095780;28;20040;-87
2023/03/23 07:28:12;;;;;;;17.60;12.48;;;;;;;;;;5096412;28;20024;-87
2023/03/23 07:30:38;;;;;;;16.35;12.23;;;;;;;;;;5095274;28;20027;-87
2023/03/23 07:33:09;;;;;;;16.27;12.32;;;;;;;;;;5095840;28;20076;-87
2023/03/23 07:35:36;;;;;;;13.65;11.43;;;;;;;;;;5096102;28;20127;-87
2023/03/23 07:38:03;;;;;;;18.88;10.65;;;;;;;;;;5095834;28;20043;-87
2023/03/23 07:40:33;;;;;;;14.38;11.63;;;;;;;;;;5095996;28;20030;-86
2023/03/23 07:43:00;;;;;;;14.43;12.05;;;;;;;;;;5096500;28;20031;-87
2023/03/23 07:45:27;;;;;;;15.70;11.63;;;;;;;;;;5095841;28;20028;-87
2023/03/23 07:47:53;;;;;;;31.92;21.25;;;;;;;;;;5095758;28;20114;-87
2023/03/23 07:50:24;;;;;;;26.45;18.05;;;;;;;;;;5095544;28;20053;-87
2023/03/23 07:52:57;;;;;;;11.65;9.57;;;;;;;;;;5095462;28;20028;-87
2023/03/23 07:55:24;;;;;;;10.98;8.35;;;;;;;;;;5095787;28;20027;-86
2023/03/23 07:57:51;;;;;;;11.70;8.82;;;;;;;;;;5095935;28;20481;-86
2023/03/23 08:00:23;;;;;;;10.50;8.30;;;;;;;;;;5095455;28;20035;-87
2023/03/23 08:02:52;;;;;;;11.77;9.50;;;;;;;;;;5079604;28;20024;-87
2023/03/23 08:05:20;;;;;;;10.70;8.45;;;;;;;;;;5095650;28;20080;-87
2023/03/23 08:07:47;;;;;;;15.57;7.63;;;;;;;;;;5095675;28;20115;-86
2023/03/23 08:10:15;;;;;;;9.93;7.30;;;;;;;;;;5095370;28;20027;-87
2023/03/23 08:12:43;;;;;;;7.22;5.80;;;;;;;;;;5095823;28;20100;-87
2023/03/23 08:15:14;;;;;;;7.55;6.10;;;;;;;;;;5113438;28;20056;-87
2023/03/23 08:17:42;;;;;;;7.18;5.75;;;;;;;;;;5113751;28;20022;-88
2023/03/23 08:20:10;;;;;;;6.55;5.85;;;;;;;;;;5095527;28;20038;-88
2023/03/23 08:22:37;;;;;;;11.57;6.30;;;;;;;;;;5095919;28;20072;-88
2023/03/23 08:25:04;;;;;;;10.13;7.35;;;;;;;;;;5095735;28;20537;-89
2023/03/23 08:27:43;;;;;;;9.48;7.03;;;;;;;;;;5095286;28;20400;-87
2023/03/23 08:30:13;;;;;;;7.78;6.05;;;;;;;;;;5112941;28;20047;-88
2023/03/23 08:32:40;;;;;;;10.27;6.60;;;;;;;;;;5095434;28;20024;-87
2023/03/23 08:35:08;;;;;;;13.00;6.45;;;;;;;;;;5095222;28;20024;-88
2023/03/23 08:37:35;;;;;;;16.83;11.93;;;;;;;;;;5095528;28;20031;-88
2023/03/23 08:40:07;;;;;;;9.85;7.78;;;;;;;;;;5095159;28;20043;-87
2023/03/23 08:42:33;;;;;;;8.13;6.75;;;;;;;;;;5096925;28;20023;-87
2023/03/23 08:44:59;;;;;;;7.15;6.28;;;;;;;;;;5099089;28;20027;-87
2023/03/23 08:47:26;;;;;;;7.15;5.03;;;;;;;;;;5099183;28;20066;-88
2023/03/23 08:49:53;;;;;;;15.98;10.48;;;;;;;;;;5099105;28;20024;-87
2023/03/23 08:52:20;;;;;;;14.80;10.30;;;;;;;;;;5098920;28;20039;-86
2023/03/23 08:54:47;;;;;;;8.30;6.15;;;;;;;;;;5098945;28;20016;-87
2023/03/23 08:57:18;;;;;;;7.90;6.45;;;;;;;;;;5099181;28;20546;-90
2023/03/23 08:59:45;;;;;;;13.07;9.68;;;;;;;;;;5098562;28;20046;-87
2023/03/23 09:02:11;;;;;;;9.40;7.22;;;;;;;;;;5099055;28;20118;-88
2023/03/23 09:04:38;;;;;;;7.90;6.28;;;;;;;;;;5098942;28;20024;-87
2023/03/23 09:07:05;;;;;;;8.23;6.25;;;;;;;;;;5098934;28;20086;-86
2023/03/23 09:09:34;;;;;;;6.53;5.43;;;;;;;;;;5098665;28;20411;-87
2023/03/23 09:12:00;;;;;;;7.22;5.97;;;;;;;;;;5098575;28;20084;-87
2023/03/23 09:14:28;;;;;;;12.70;7.80;;;;;;;;;;5098580;28;20023;-87
2023/03/23 09:16:54;;;;;;;12.90;8.75;;;;;;;;;;5098509;28;20023;-87
2023/03/23 09:19:20;;;;;;;10.23;7.40;;;;;;;;;;5098795;28;20024;-88
2023/03/23 09:21:49;;;;;;;11.32;7.00;;;;;;;;;;5116624;28;20031;-87
2023/03/23 09:24:16;;;;;;;5.78;5.18;;;;;;;;;;5098329;28;20566;-87
2023/03/23 09:26:42;;;;;;;7.28;5.32;;;;;;;;;;5098501;28;20031;-86
2023/03/23 09:29:08;;;;;;;5.65;5.05;;;;;;;;;;5098312;28;20015;-87
2023/03/23 09:31:36;;;;;;;7.32;5.78;;;;;;;;;;5098091;28;20138;-87
2023/03/23 09:34:03;;;;;;;5.60;5.10;;;;;;;;;;5098846;28;20019;-87
2023/03/23 09:36:30;;;;;;;6.63;5.68;;;;;;;;;;5099064;28;20035;-87
2023/03/23 09:38:57;;;;;;;7.97;5.30;;;;;;;;;;5094163;28;20397;-86
2023/03/23 09:41:29;;;;;;;6.45;5.22;;;;;;;;;;5094634;28;20120;-88
2023/03/23 09:44:04;;;;;;;6.10;5.50;;;;;;;;;;5094823;28;20036;-87
2023/03/23 09:46:45;;;;;;;5.65;5.05;;;;;;;;;;5094480;28;20081;-88
2023/03/23 09:49:24;;;;;;;6.95;5.68;;;;;;;;;;5094914;28;20024;-87
2023/03/23 09:51:57;;;;;;;6.45;5.22;;;;;;;;;;5094774;28;20031;-88
2023/03/23 09:54:27;;;;;;;6.75;5.57;;;;;;;;;;5093868;28;20489;-87
2023/03/23 09:56:54;;;;;;;6.22;5.63;;;;;;;;;;5094464;28;20161;-87
2023/03/23 09:59:31;;;;;;;6.70;6.05;;;;;;;;;;5094358;28;20028;-88
2023/03/23 10:02:11;;;;;;;6.47;5.78;;;;;;;;;;5094578;28;20028;-87
2023/03/23 10:04:52;;;;;;;7.25;6.47;;;;;;;;;;5094103;28;20032;-87
2023/03/23 10:07:19;;;;;;;7.20;6.28;;;;;;;;;;5094080;28;20036;-87
2023/03/23 10:09:50;;;;;;;7.43;5.75;;;;;;;;;;5094301;28;20024;-87
2023/03/23 10:12:22;;;;;;;11.57;6.23;;;;;;;;;;5094520;28;20028;-88
2023/03/23 10:15:08;;;;;;;6.72;6.13;;;;;;;;;;5093926;28;20267;-87
2023/03/23 10:17:36;;;;;;;6.30;5.70;;;;;;;;;;5094240;28;20089;-86
2023/03/23 10:20:19;;;;;;;7.88;6.40;;;;;;;;;;5093910;28;20039;-87
2023/03/23 10:22:53;;;;;;;7.00;6.38;;;;;;;;;;5093808;28;20031;-87
2023/03/23 10:25:22;;;;;;;8.38;7.43;;;;;;;;;;5093930;28;20074;-88
2023/03/23 10:27:54;;;;;;;7.75;6.95;;;;;;;;;;5093688;28;20032;-87
2023/03/23 10:30:25;;;;;;;8.50;7.25;;;;;;;;;;5094629;28;20381;-87
2023/03/23 10:32:54;;;;;;;9.25;7.57;;;;;;;;;;5093644;28;20028;-87
2023/03/23 10:35:34;;;;;;;8.52;7.63;;;;;;;;;;5093498;28;20046;-87
2023/03/23 10:38:02;;;;;;;8.75;7.05;;;;;;;;;;5093518;28;20027;-87
2023/03/23 10:40:30;;;;;;;9.32;7.28;;;;;;;;;;5093319;28;20052;-87
2023/03/23 10:42:58;;;;;;;8.93;7.47;;;;;;;;;;5077287;28;20474;-87
2023/03/23 10:45:26;;;;;;;11.20;7.18;;;;;;;;;;5093249;28;20063;-87
2023/03/23 10:48:12;;;;;;;7.82;7.03;;;;;;;;;;5093364;28;20058;-87
2023/03/23 10:50:39;;;;;;;7.03;6.32;;;;;;;;;;5093009;28;20027;-87
2023/03/23 10:53:18;;;;;;;6.38;5.68;;;;;;;;;;5093638;28;20077;-87
2023/03/23 10:55:44;;;;;;;6.45;5.85;;;;;;;;;;5093407;28;20035;-87
2023/03/23 10:58:23;;;;;;;7.30;5.80;;;;;;;;;;5093424;28;20043;-87
2023/03/23 11:00:50;;;;;;;7.45;6.45;;;;;;;;;;5093147;28;20078;-87
2023/03/23 11:03:17;;;;;;;7.72;5.78;;;;;;;;;;5093473;28;20028;-87
2023/03/23 11:05:45;;;;;;;6.18;5.55;;;;;;;;;;5091886;28;20036;-87
2023/03/23 11:08:16;;;;;;;8.13;6.88;;;;;;;;;;5093251;28;20427;-87
2023/03/23 11:10:48;;;;;;;8.93;6.90;;;;;;;;;;5093166;28;20028;-87
2023/03/23 11:13:14;;;;;;;;;;;;;;;;;;5093352;28;20020;-87
2023/03/23 11:15:41;;;;;;;7.60;6.40;;;;;;;;;;5092994;28;19965;-87
2023/03/23 11:18:13;;;;;;;10.27;6.60;;;;;;;;;;5092824;28;20478;-88
2023/03/23 11:20:44;;;;;;;7.53;6.78;;;;;;;;;;5093027;28;20195;-88
2023/03/23 11:23:16;;;;;;;6.88;5.72;;;;;;;;;;5093489;28;20043;-89
2023/03/23 11:25:54;;;;;;;6.65;5.75;;;;;;;;;;5092967;28;20055;-88
2023/03/23 11:28:21;;;;;;;6.80;5.88;;;;;;;;;;5092883;28;20020;-90
2023/03/23 11:30:47;;;;;;;7.50;5.93;;;;;;;;;;5093624;28;20478;-88
2023/03/23 11:33:15;;;;;;;6.13;5.20;;;;;;;;;;5092727;28;20477;-87
2023/03/23 11:35:45;;;;;;;6.32;5.70;;;;;;;;;;5093031;28;20028;-89
2023/03/23 11:38:17;;;;;;;7.57;5.90;;;;;;;;;;5092972;28;20077;-87
2023/03/23 11:40:45;;;;;;;9.32;6.20;;;;;;;;;;5092320;28;20121;-87
2023/03/23 11:43:19;;;;;;;5.85;5.25;;;;;;;;;;5092287;28;20092;-87
2023/03/23 11:46:14;;;;;;;7.25;5.70;;;;;;;;;;5092410;28;20439;-89
2023/03/23 11:48:45;;;;;;;6.55;4.82;;;;;;;;;;5080022;28;20028;-88
2023/03/23 11:51:33;;;;;;;7.38;5.78;;;;;;;;;;5092974;28;20474;-88
2023/03/23 11:54:27;;;;;;;6.43;5.30;;;;;;;;;;5092608;28;20047;-88
2023/03/23 11:56:56;;;;;;;7.95;6.60;;;;;;;;;;5093962;28;20028;-89
2023/03/23 11:59:35;;;;;;;6.93;6.10;;;;;;;;;;5092784;28;20027;-87
2023/03/23 12:02:20;;;;;;;9.63;6.22;;;;;;;;;;5093669;28;20051;-90
2023/03/23 12:04:47;;;;;;;7.50;5.45;;;;;;;;;;5092885;28;20020;-92
2023/03/23 12:07:32;;;;;;;10.40;6.18;;;;;;;;;;5093241;28;20082;-91
2023/03/23 12:10:13;;;;;;;8.02;5.97;;;;;;;;;;5093303;28;20032;-90
2023/03/23 12:12:49;;;;;;;6.80;5.93;;;;;;;;;;5092376;28;20162;-91
2023/03/23 12:15:18;;;;;;;6.93;5.78;;;;;;;;;;5093698;28;20089;-91
2023/03/23 12:17:49;;;;;;;10.15;5.82;;;;;;;;;;5093158;28;20024;-91
2023/03/23 12:20:16;;;;;;;7.72;5.47;;;;;;;;;;5093411;28;20028;-90
2023/03/23 12:22:46;;;;;;;5.00;4.50;;;;;;;;;;5093131;28;20024;-92
2023/03/23 12:25:30;;;;;;;5.88;4.55;;;;;;;;;;5093378;28;20032;-88
2023/03/23 12:28:04;;;;;;;6.03;4.93;;;;;;;;;;5092931;28;20024;-89
2023/03/23 12:33:33;;;;;;;7.43;5.28;;;;;;;;;;5094264;28;20101;-90
2023/03/23 12:36:05;;;;;;;7.40;4.97;;;;;;;;;;5093838;28;20035;-90
2023/03/23 12:38:41;;;;;;;7.95;5.38;;;;;;;;;;5093252;28;20024;-89
2023/03/23 12:41:26;;;;;;;5.85;4.88;;;;;;;;;;5095900;28;20062;-89
2023/03/23 12:44:14;;;;;;;6.22;5.13;;;;;;;;;;5095956;28;20031;-90
2023/03/23 12:46:59;;;;;;;8.50;5.50;;;;;;;;;;5112596;28;20036;-89
2023/03/23 12:49:34;;;;;;;5.38;4.43;;;;;;;;;;5096048;28;20020;-90
2023/03/23 12:52:01;;;;;;;6.90;4.82;;;;;;;;;;5095679;28;20043;-89
2023/03/23 12:54:38;;;;;;;5.28;4.55;;;;;;;;;;5096571;28;20027;-89
2023/03/23 12:57:19;;;;;;;6.95;4.90;;;;;;;;;;5096569;28;20039;-89
2023/03/23 12:59:53;;;;;;;5.50;4.45;;;;;;;;;;5095202;28;20024;-88
2023/03/23 13:02:31;;;;;;;7.63;4.65;;;;;;;;;;5095198;28;20047;-88
2023/03/23 13:14:27;;;;;;;9.07;6.63;;;;;;;;;;5011753;28;20088;-87
2023/03/23 13:17:02;;;;;;;7.57;5.47;;;;;;;;;;4994821;28;20093;-87
2023/03/23 13:19:41;;;;;;;6.65;5.30;;;;;;;;;;5086080;28;20481;-88
2023/03/23 13:22:08;;;;;;;5.32;4.80;;;;;;;;;;5094778;28;20019;-87
2023/03/23 13:24:36;;;;;;;8.25;4.85;;;;;;;;;;5094813;28;20030;-87
2023/03/23 13:27:11;;;;;;;9.02;4.70;;;;;;;;;;5094884;28;20088;-92
2023/03/23 13:32:45;;;;;;;9.32;5.63;;;;;;;;;;5079142;28;20030;-93
2023/03/23 13:35:18;;;;;;;7.05;5.25;;;;;;;;;;5100101;28;20034;-92
2023/03/23 13:37:50;;;;;;;5.28;4.63;;;;;;;;;;5099653;28;20047;-93
2023/03/23 13:40:31;;;;;;;8.77;4.57;;;;;;;;;;5099525;28;20101;-92
2023/03/23 13:42:59;;;;;;;7.07;5.72;;;;;;;;;;5099928;28;20032;-93
2023/03/23 13:45:29;;;;;;;5.03;4.30;;;;;;;;;;5099873;28;20027;-93
2023/03/23 13:48:16;;;;;;;9.13;4.53;;;;;;;;;;5099846;28;20469;-91
2023/03/23 13:50:51;;;;;;;12.32;5.18;;;;;;;;;;5099074;28;20019;-88
2023/03/23 13:53:25;;;;;;;8.10;5.22;;;;;;;;;;5097978;28;20540;-88
2023/03/23 13:56:04;;;;;;;6.90;4.63;;;;;;;;;;5098264;28;20027;-88
2023/03/23 13:58:30;;;;;;;5.15;4.65;;;;;;;;;;5097958;28;20449;-87
2023/03/23 14:01:09;;;;;;;6.80;4.70;;;;;;;;;;5097807;28;20047;-88
2023/03/23 14:03:43;;;;;;;7.10;5.88;;;;;;;;;;5097983;28;20028;-87
2023/03/23 14:06:16;;;;;;;4.75;4.07;;;;;;;;;;5097629;28;20505;-88
2023/03/23 14:08:44;;;;;;;5.90;4.60;;;;;;;;;;5097599;28;20043;-88
2023/03/23 14:11:14;;;;;;;5.07;4.57;;;;;;;;;;5097559;28;20047;-88
2023/03/23 14:13:40;;;;;;;7.53;4.88;;;;;;;;;;5097363;28;20023;-88
2023/03/23 14:16:26;;;;;;;9.38;5.03;;;;;;;;;;5097722;28;20015;-88
2023/03/23 14:18:52;;;;;;;5.63;5.00;;;;;;;;;;5097328;28;20536;-87
2023/03/23 14:21:23;;;;;;;5.45;4.40;;;;;;;;;;5097411;28;20101;-87
2023/03/23 14:23:50;;;;;;;5.78;4.85;;;;;;;;;;5097580;28;20034;-88
2023/03/23 14:26:18;;;;;;;6.18;4.22;;;;;;;;;;5097407;28;20031;-87
2023/03/23 14:28:45;;;;;;;6.90;4.53;;;;;;;;;;5097142;28;20019;-87
2023/03/23 14:31:23;;;;;;;6.38;4.50;;;;;;;;;;5097143;28;20026;-88
2023/03/23 14:33:50;;;;;;;6.90;4.57;;;;;;;;;;5097132;28;20059;-88
2023/03/23 14:36:24;;;;;;;5.97;4.10;;;;;;;;;;5097211;28;20028;-87
2023/03/23 14:39:17;;;;;;;5.75;4.38;;;;;;;;;;5097073;28;20396;-87
2023/03/23 14:41:44;;;;;;;8.23;4.68;;;;;;;;;;5096873;28;20076;-87
2023/03/23 14:44:14;;;;;;;8.20;4.30;;;;;;;;;;5096913;28;20505;-88
2023/03/23 14:46:42;;;;;;;8.50;4.93;;;;;;;;;;5097147;28;20126;-87
2023/03/23 14:49:08;;;;;;;5.25;4.53;;;;;;;;;;5096817;28;20031;-88
2023/03/23 14:51:34;;;;;;;5.70;4.70;;;;;;;;;;5096991;28;20016;-89
2023/03/23 14:54:01;;;;;;;7.60;5.20;;;;;;;;;;5097016;28;20119;-88
2023/03/23 14:56:33;;;;;;;6.55;5.22;;;;;;;;;;5096769;28;20024;-87
2023/03/23 14:59:04;;;;;;;6.90;5.20;;;;;;;;;;5114781;28;20519;-87
2023/03/23 15:01:32;;;;;;;8.65;5.20;;;;;;;;;;5096988;28;20114;-88
2023/03/23 15:03:58;;;;;;;7.78;5.30;;;;;;;;;;5096758;28;20024;-88
2023/03/23 15:06:26;;;;;;;6.90;4.95;;;;;;;;;;5096492;28;20036;-87
2023/03/23 15:08:54;;;;;;;5.68;4.93;;;;;;;;;;5096184;28;20054;-88
2023/03/23 15:11:24;;;;;;;7.20;5.28;;;;;;;;;;5096676;28;20063;-88
2023/03/23 15:13:57;;;;;;;5.65;5.07;;;;;;;;;;5097458;28;20020;-89
2023/03/23 15:16:25;;;;;;;5.72;4.90;;;;;;;;;;5097185;28;20114;-88